Terminal Aerodrome Forecast
Issued by NWS

Home | Current Version | Previous Version | Text Only | Print | Product List | Glossary On
Versions: 1 2 3 4 5 6 7 8 9 10 11 12 13 14 15 16 17 18 19 20
469
FTUS44 KLZK 232332
TAFLLQ
TAF
KLLQ 232332Z 2400/2424 22005KT P6SM FEW200
     FM240500 30009KT P6SM FEW200
     FM241300 30018G26KT P6SM SKC=

USA.gov is the U.S. government's official web portal to all federal, state and local government web resources and services.